createdAt,value
2022-08-02T00:00:45.365Z,6.97
2022-08-02T00:02:17.961Z,4.85
2022-08-02T00:03:49.817Z,3.95
2022-08-02T00:05:22.240Z,6.43
2022-08-02T00:06:54.153Z,4.00
2022-08-02T00:08:29.240Z,5.43
2022-08-02T00:10:01.046Z,5.80
2022-08-02T00:11:32.923Z,5.20
2022-08-02T00:13:04.822Z,4.77
2022-08-02T00:14:37.131Z,3.93
2022-08-02T00:16:08.938Z,4.13
2022-08-02T00:17:40.773Z,4.60
2022-08-02T00:19:12.737Z,5.33
2022-08-02T00:20:44.626Z,4.57
2022-08-02T00:22:19.067Z,6.00
2022-08-02T00:24:27.946Z,4.85
2022-08-02T00:25:55.095Z,6.50
2022-08-02T00:27:27.899Z,5.30
2022-08-02T00:28:59.722Z,6.18
2022-08-02T00:30:31.728Z,4.40
2022-08-02T00:32:04.027Z,5.45
2022-08-02T00:34:26.440Z,3.90
2022-08-02T00:35:27.662Z,4.72
2022-08-02T00:36:59.562Z,5.13
2022-08-02T00:38:31.527Z,4.87
2022-08-02T00:40:03.651Z,5.47
2022-08-02T00:41:45.669Z,3.83
2022-08-02T00:43:18.394Z,6.55
2022-08-02T00:46:22.071Z,5.63
2022-08-02T00:47:53.933Z,4.35
2022-08-02T00:49:25.888Z,4.13
2022-08-02T00:50:57.817Z,3.88
2022-08-02T00:52:29.755Z,5.55
2022-08-02T00:54:01.624Z,5.17
2022-08-02T00:55:33.443Z,3.83
2022-08-02T00:57:05.309Z,4.60
2022-08-02T00:58:37.178Z,4.70
2022-08-02T01:00:13.993Z,5.97
2022-08-02T01:01:56.406Z,4.32
2022-08-02T01:03:29.618Z,4.80
2022-08-02T01:05:01.557Z,4.03
2022-08-02T01:06:33.944Z,3.22
2022-08-02T01:08:05.743Z,4.63
2022-08-02T01:09:37.577Z,4.60
2022-08-02T01:11:09.519Z,4.37
2022-08-02T01:12:41.419Z,3.72
2022-08-02T01:14:14.795Z,4.03
2022-08-02T01:16:02.368Z,2.97
2022-08-02T01:17:49.457Z,3.35
2022-08-02T01:19:38.684Z,5.25
2022-08-02T01:21:19.251Z,3.28
2022-08-02T01:23:29.838Z,2.90
2022-08-02T01:25:07.804Z,5.22
2022-08-02T01:26:44.440Z,3.47
2022-08-02T01:28:24.847Z,4.18
2022-08-02T01:29:57.776Z,3.47
2022-08-02T01:31:51.329Z,2.88
2022-08-02T01:38:12.184Z,3.47
2022-08-02T01:39:46.504Z,4.38
2022-08-02T01:41:28.307Z,5.60
2022-08-02T01:43:00.985Z,4.70
2022-08-02T01:46:15.587Z,5.00
2022-08-02T01:47:48.382Z,4.25
2022-08-02T01:50:53.780Z,9.10
2022-08-02T01:52:38.213Z,4.72
2022-08-02T01:54:12.335Z,3.97
2022-08-02T01:55:57.409Z,2.53
2022-08-02T01:57:42.042Z,4.68
2022-08-02T01:59:17.779Z,7.45
2022-08-02T02:00:49.868Z,6.43
2022-08-02T02:02:22.775Z,3.03
2022-08-02T02:05:31.597Z,4.03
2022-08-02T02:07:03.931Z,3.53
2022-08-02T02:08:38.962Z,4.72
2022-08-02T02:10:15.167Z,6.60
2022-08-02T02:12:06.356Z,3.88
2022-08-02T02:13:42.592Z,8.52
2022-08-02T02:15:14.554Z,4.00
2022-08-02T02:16:48.458Z,4.65
2022-08-02T02:18:28.268Z,5.43
2022-08-02T02:20:03.019Z,5.97
2022-08-02T02:21:35.280Z,4.22
2022-08-02T02:23:08.471Z,4.50
2022-08-02T02:24:47.139Z,5.60
2022-08-02T02:26:27.367Z,5.88
2022-08-02T02:28:05.987Z,4.25
2022-08-02T02:29:40.404Z,4.82
2022-08-02T02:31:14.056Z,3.97
2022-08-02T02:32:48.015Z,3.90
2022-08-02T02:34:28.888Z,8.40
2022-08-02T02:36:02.014Z,4.43
2022-08-02T02:37:34.429Z,6.10
2022-08-02T02:39:13.076Z,3.65
2022-08-02T02:40:46.932Z,4.55
2022-08-02T02:42:20.315Z,8.23
2022-08-02T02:43:55.219Z,3.90
2022-08-02T02:45:27.704Z,4.78
2022-08-02T02:47:00.543Z,3.83
2022-08-02T02:50:04.689Z,6.15
2022-08-02T02:51:36.642Z,6.22
2022-08-02T02:53:08.861Z,5.65
2022-08-02T02:54:42.240Z,4.28
2022-08-02T02:56:14.282Z,5.00
2022-08-02T02:57:46.678Z,4.63
2022-08-02T02:59:18.942Z,4.97
2022-08-02T03:01:09.298Z,8.80
2022-08-02T03:02:43.386Z,6.20
2022-08-02T03:04:18.341Z,5.97
2022-08-02T03:05:50.242Z,5.20
2022-08-02T03:07:22.095Z,8.95
2022-08-02T03:08:54.051Z,6.53
2022-08-02T03:10:26.974Z,3.35
2022-08-02T03:11:58.975Z,7.78
2022-08-02T03:13:33.882Z,4.72
2022-08-02T03:15:12.813Z,4.82
2022-08-02T03:16:51.419Z,4.40
2022-08-02T03:18:40.812Z,7.40
2022-08-02T03:20:20.172Z,4.72
2022-08-02T03:21:57.204Z,6.10
2022-08-02T03:23:30.069Z,6.00
2022-08-02T03:25:01.867Z,5.93
2022-08-02T03:26:34.003Z,7.37
2022-08-02T03:28:05.943Z,5.30
2022-08-02T03:29:37.763Z,5.85
2022-08-02T03:31:09.711Z,5.40
2022-08-02T03:32:43.787Z,4.97
2022-08-02T03:34:15.684Z,3.35
2022-08-02T03:35:48.802Z,5.87
2022-08-02T03:37:21.584Z,10.27
2022-08-02T03:40:29.129Z,7.13
2022-08-02T03:42:01.255Z,7.35
2022-08-02T03:43:33.267Z,6.80
2022-08-02T03:45:08.806Z,7.40
2022-08-02T03:46:42.077Z,6.82
2022-08-02T03:48:34.328Z,5.55
2022-08-02T03:50:13.062Z,6.00
2022-08-02T03:51:45.646Z,6.47
2022-08-02T03:53:19.976Z,6.32
2022-08-02T03:54:52.151Z,5.30
2022-08-02T03:56:27.268Z,5.87
2022-08-02T03:57:59.491Z,4.75
2022-08-02T03:59:41.136Z,6.72
2022-08-02T04:01:13.134Z,5.15
2022-08-02T04:02:45.033Z,7.38
2022-08-02T04:04:16.929Z,11.30
2022-08-02T04:06:04.119Z,5.10
2022-08-02T04:08:33.275Z,5.30
2022-08-02T04:09:28.576Z,6.20
2022-08-02T04:11:18.769Z,9.32
2022-08-02T04:12:50.821Z,6.57
2022-08-02T04:14:22.696Z,7.35
2022-08-02T04:15:56.665Z,8.65
2022-08-02T04:17:32.028Z,6.18
2022-08-02T04:19:05.475Z,7.32
2022-08-02T04:20:37.435Z,4.65
2022-08-02T04:22:21.774Z,10.13
2022-08-02T04:23:57.017Z,8.38
2022-08-02T04:25:35.470Z,7.07
2022-08-02T04:27:49.938Z,5.38
2022-08-02T04:29:05.277Z,7.70
2022-08-02T04:32:11.563Z,6.47
2022-08-02T04:33:44.325Z,7.95
2022-08-02T04:35:20.135Z,8.88
2022-08-02T04:36:52.653Z,8.02
2022-08-02T04:38:25.142Z,5.63
2022-08-02T04:39:56.978Z,7.40
2022-08-02T04:41:44.599Z,6.75
2022-08-02T04:43:16.580Z,10.55
2022-08-02T04:44:48.798Z,7.30
2022-08-02T04:46:20.696Z,10.48
2022-08-02T04:48:02.093Z,5.87
2022-08-02T04:49:36.034Z,7.50
2022-08-02T04:51:07.892Z,8.98
2022-08-02T04:52:42.847Z,8.80
2022-08-02T04:54:17.722Z,9.25
2022-08-02T04:55:49.606Z,11.52
2022-08-02T04:57:39.949Z,8.90
2022-08-02T04:59:27.495Z,13.60
2022-08-02T05:00:59.418Z,10.35
2022-08-02T05:02:31.397Z,10.65
2022-08-02T05:04:03.866Z,9.53
2022-08-02T05:05:35.840Z,10.18
2022-08-02T05:07:07.709Z,10.88
2022-08-02T05:08:39.506Z,12.87
2022-08-02T05:10:14.187Z,11.82
2022-08-02T05:11:46.013Z,11.00
2022-08-02T05:13:27.026Z,9.55
2022-08-02T05:14:58.924Z,10.27
2022-08-02T05:16:31.885Z,7.90
2022-08-02T05:18:04.142Z,13.98
2022-08-02T05:19:36.015Z,9.80
2022-08-02T05:21:07.838Z,8.33
2022-08-02T05:22:40.461Z,10.07
2022-08-02T05:24:12.363Z,11.45
2022-08-02T05:25:44.171Z,7.72
2022-08-02T05:27:16.541Z,7.03
2022-08-02T05:28:53.141Z,10.13
2022-08-02T05:30:27.814Z,9.02
2022-08-02T05:31:59.624Z,14.55
2022-08-02T05:33:31.548Z,15.65
2022-08-02T05:35:03.753Z,9.85
2022-08-02T05:36:35.578Z,8.73
2022-08-02T05:38:13.965Z,8.23
2022-08-02T05:39:55.714Z,8.70
2022-08-02T05:41:28.237Z,11.20
2022-08-02T05:43:00.163Z,11.03
2022-08-02T05:44:32.038Z,10.03
2022-08-02T05:46:05.077Z,8.65
2022-08-02T05:47:37.725Z,10.82
2022-08-02T05:49:09.672Z,9.38
2022-08-02T05:50:45.785Z,10.95
2022-08-02T05:52:19.751Z,9.93
2022-08-02T05:53:59.442Z,10.43
2022-08-02T05:55:35.581Z,8.93
2022-08-02T05:57:27.517Z,13.68
2022-08-02T05:58:59.326Z,10.32
2022-08-02T06:00:32.455Z,8.82
2022-08-02T06:02:13.890Z,9.63
2022-08-02T06:03:53.192Z,9.25
2022-08-02T06:05:30.019Z,12.90
2022-08-02T06:07:07.232Z,9.60
2022-08-02T06:08:47.235Z,10.52
2022-08-02T06:10:21.718Z,11.50
2022-08-02T06:12:02.310Z,11.27
2022-08-02T06:13:35.549Z,9.45
2022-08-02T06:15:09.916Z,6.88
2022-08-02T06:16:44.703Z,9.18
2022-08-02T06:18:18.258Z,11.25
2022-08-02T06:20:00.799Z,12.35
2022-08-02T06:22:35.328Z,11.00
2022-08-02T06:23:26.343Z,8.57
2022-08-02T06:24:58.803Z,8.82
2022-08-02T06:26:30.718Z,9.40
2022-08-02T06:28:11.313Z,10.48
2022-08-02T06:29:44.489Z,6.43
2022-08-02T06:32:51.257Z,7.35
2022-08-02T06:34:23.262Z,7.68
2022-08-02T06:36:10.155Z,7.38
2022-08-02T06:37:46.613Z,12.75
2022-08-02T06:39:23.967Z,10.43
2022-08-02T06:41:05.536Z,12.32
2022-08-02T06:42:50.200Z,10.35
2022-08-02T06:46:57.079Z,9.73
2022-08-02T06:48:07.156Z,8.90
2022-08-02T06:49:52.087Z,7.55
2022-08-02T06:51:26.428Z,8.73
2022-08-02T06:52:58.319Z,5.65
2022-08-02T06:54:30.250Z,7.22
2022-08-02T06:56:02.088Z,6.55
2022-08-02T06:57:34.508Z,5.93
2022-08-02T06:59:06.372Z,8.23
2022-08-02T07:00:38.330Z,7.55
2022-08-02T07:02:12.119Z,10.10
2022-08-02T07:03:44.183Z,9.70
2022-08-02T07:05:16.099Z,9.73
2022-08-02T07:06:48.031Z,6.75
2022-08-02T07:08:20.434Z,7.43
2022-08-02T07:09:57.039Z,9.63
2022-08-02T07:11:32.968Z,6.80
2022-08-02T07:13:04.854Z,5.43
2022-08-02T07:14:36.780Z,6.30
2022-08-02T07:16:08.639Z,6.00
2022-08-02T07:17:40.476Z,9.63
2022-08-02T07:19:12.305Z,8.47
2022-08-02T07:20:44.078Z,7.72
2022-08-02T07:22:17.897Z,7.60
2022-08-02T07:23:49.705Z,9.20
2022-08-02T07:25:21.635Z,10.00
2022-08-02T07:27:10.639Z,9.52
2022-08-02T07:28:43.284Z,8.75
2022-08-02T07:30:15.256Z,7.03
2022-08-02T07:31:47.161Z,7.05
2022-08-02T07:33:37.404Z,11.13
2022-08-02T07:35:10.929Z,10.88
2022-08-02T07:36:46.380Z,8.95
2022-08-02T07:38:23.088Z,7.50
2022-08-02T07:39:57.764Z,7.15
2022-08-02T07:41:30.355Z,6.70
2022-08-02T07:43:04.239Z,12.23
2022-08-02T07:44:36.370Z,9.68
2022-08-02T07:46:08.204Z,8.60
2022-08-02T07:47:41.407Z,5.70
2022-08-02T07:49:18.583Z,7.30
2022-08-02T07:50:50.621Z,7.72
2022-08-02T07:52:22.474Z,6.93
2022-08-02T07:54:02.500Z,7.40
2022-08-02T07:55:40.369Z,9.35
2022-08-02T07:57:12.889Z,8.15
2022-08-02T07:58:44.809Z,7.70
2022-08-02T08:00:17.699Z,6.07
2022-08-02T08:01:50.195Z,6.93
2022-08-02T08:03:22.095Z,8.48
2022-08-02T08:04:54.051Z,4.97
2022-08-02T08:06:28.848Z,5.38
2022-08-02T08:08:01.034Z,5.65
2022-08-02T08:09:33.303Z,8.27
2022-08-02T08:11:05.196Z,6.75
2022-08-02T08:12:39.245Z,6.43
2022-08-02T08:14:14.804Z,5.60
2022-08-02T08:15:52.249Z,7.05
2022-08-02T08:17:25.209Z,4.90
2022-08-02T08:20:28.973Z,5.18
2022-08-02T08:22:01.075Z,5.40
2022-08-02T08:23:32.951Z,6.82
2022-08-02T08:25:05.387Z,8.43
2022-08-02T08:26:40.052Z,8.70
2022-08-02T08:28:14.689Z,8.27
2022-08-02T08:29:46.626Z,8.05
2022-08-02T08:31:18.845Z,10.52
2022-08-02T08:32:51.031Z,7.72
2022-08-02T08:34:24.292Z,4.40
2022-08-02T08:35:57.154Z,8.18
2022-08-02T08:37:35.295Z,8.45
2022-08-02T08:39:07.317Z,8.40
2022-08-02T08:40:39.480Z,6.57
2022-08-02T08:42:11.630Z,5.70
2022-08-02T08:43:44.125Z,8.48
2022-08-02T08:45:18.106Z,9.18
2022-08-02T08:46:50.567Z,6.57
2022-08-02T08:48:30.283Z,5.13
2022-08-02T08:50:08.292Z,6.53
2022-08-02T08:51:43.684Z,7.53
2022-08-02T08:53:15.864Z,7.50
2022-08-02T08:54:48.955Z,4.57
2022-08-02T08:56:22.259Z,6.55
2022-08-02T08:57:57.840Z,5.68
2022-08-02T08:59:29.709Z,4.55
2022-08-02T09:01:13.085Z,6.22
2022-08-02T09:02:45.054Z,7.40
2022-08-02T09:04:17.509Z,5.25
2022-08-02T09:05:49.378Z,4.28
2022-08-02T09:07:21.260Z,4.32
2022-08-02T09:08:53.176Z,7.00
2022-08-02T09:10:47.163Z,4.95
2022-08-02T09:12:22.427Z,5.68
2022-08-02T09:14:01.739Z,5.53
2022-08-02T09:15:33.783Z,4.35
2022-08-02T09:17:10.514Z,6.63
2022-08-02T09:18:47.707Z,5.75
2022-08-02T09:20:19.636Z,5.00
2022-08-02T09:21:53.185Z,5.88
2022-08-02T09:23:27.094Z,5.80
2022-08-02T09:24:58.949Z,4.88
2022-08-02T09:26:30.931Z,7.88
2022-08-02T09:28:04.474Z,6.68
2022-08-02T09:29:48.603Z,6.30
2022-08-02T09:31:28.697Z,5.57
2022-08-02T09:33:05.443Z,4.35
2022-08-02T09:35:03.696Z,5.93
2022-08-02T09:36:43.943Z,3.92
2022-08-02T09:38:15.879Z,4.90
2022-08-02T09:39:47.967Z,4.80
2022-08-02T09:41:22.162Z,4.75
2022-08-02T09:43:00.025Z,4.00
2022-08-02T09:44:31.886Z,4.18
2022-08-02T09:46:24.300Z,5.63
2022-08-02T09:47:56.643Z,3.95
2022-08-02T09:49:28.593Z,4.43
2022-08-02T09:51:00.549Z,4.20
2022-08-02T09:52:43.133Z,3.85
2022-08-02T09:54:27.804Z,3.25
2022-08-02T09:55:59.710Z,2.95
2022-08-02T09:57:33.770Z,4.28
2022-08-02T09:59:11.926Z,3.97
2022-08-02T10:00:59.140Z,5.72
2022-08-02T10:02:31.113Z,3.60
2022-08-02T10:04:05.997Z,2.75
2022-08-02T10:05:56.361Z,3.47
2022-08-02T10:07:34.884Z,5.60
2022-08-02T10:09:07.863Z,2.75
2022-08-02T10:10:40.432Z,5.22
2022-08-02T10:13:55.558Z,4.47
2022-08-02T10:15:27.692Z,2.55
2022-08-02T10:17:00.540Z,3.17
2022-08-02T10:18:41.160Z,3.33
2022-08-02T10:20:13.538Z,2.58
2022-08-02T10:21:57.710Z,2.75
2022-08-02T10:23:34.603Z,2.00
2022-08-02T10:25:07.052Z,3.40
2022-08-02T10:28:16.529Z,3.97
2022-08-02T10:29:55.529Z,2.95
2022-08-02T10:31:38.438Z,3.15
2022-08-02T10:33:10.561Z,3.03
2022-08-02T10:35:02.679Z,3.33
2022-08-02T10:36:53.274Z,3.20
2022-08-02T10:38:28.203Z,2.15
2022-08-02T10:40:00.323Z,5.13
2022-08-02T10:41:51.507Z,2.72
2022-08-02T10:43:32.140Z,2.13
2022-08-02T10:45:11.620Z,2.97
2022-08-02T10:46:43.602Z,3.67
2022-08-02T10:48:16.353Z,3.13
2022-08-02T10:49:56.288Z,2.95
2022-08-02T10:52:03.182Z,3.45
2022-08-02T10:53:37.031Z,4.82
2022-08-02T10:55:13.206Z,4.30
2022-08-02T10:56:47.973Z,3.33
2022-08-02T10:58:26.028Z,3.35
2022-08-02T11:00:00.925Z,4.45
2022-08-02T11:01:38.547Z,4.95
2022-08-02T11:03:30.095Z,2.90
2022-08-02T11:05:06.927Z,2.45
2022-08-02T11:07:08.406Z,5.18
2022-08-02T11:08:40.941Z,7.30
2022-08-02T11:10:26.066Z,3.80
2022-08-02T11:12:02.419Z,4.60
2022-08-02T11:14:01.472Z,1.67
2022-08-02T11:15:52.214Z,3.53
2022-08-02T11:17:25.140Z,3.58
2022-08-02T11:18:56.933Z,2.67
2022-08-02T11:20:28.872Z,4.93
2022-08-02T11:22:02.855Z,2.60
2022-08-02T11:23:44.480Z,5.43
2022-08-02T11:25:23.935Z,2.63
2022-08-02T11:26:56.816Z,1.98
2022-08-02T11:28:28.792Z,3.22
2022-08-02T11:30:12.855Z,2.17
2022-08-02T11:31:45.986Z,3.38
2022-08-02T11:33:17.885Z,4.20
2022-08-02T11:34:54.322Z,3.47
2022-08-02T11:36:26.173Z,4.30
2022-08-02T11:37:59.459Z,2.20
2022-08-02T11:39:31.894Z,3.55
2022-08-02T11:41:06.153Z,3.05
2022-08-02T11:42:46.464Z,2.22
2022-08-02T11:44:19.131Z,2.88
2022-08-02T11:45:56.454Z,2.70
2022-08-02T11:47:28.476Z,3.20
2022-08-02T11:49:14.861Z,2.15
2022-08-02T11:50:46.853Z,2.28
2022-08-02T11:52:18.910Z,3.88
2022-08-02T11:53:57.583Z,1.38
2022-08-02T11:55:31.271Z,3.83
2022-08-02T11:57:21.288Z,3.08
2022-08-02T11:59:06.112Z,2.13
2022-08-02T12:00:38.834Z,4.88
2022-08-02T12:02:11.567Z,3.33
2022-08-02T12:03:43.569Z,2.70
2022-08-02T12:05:24.708Z,3.53
2022-08-02T12:07:15.287Z,3.28
2022-08-02T12:08:54.426Z,2.90
2022-08-02T12:10:26.611Z,2.22
2022-08-02T12:12:00.384Z,1.50
2022-08-02T12:13:45.349Z,2.35
2022-08-02T12:15:37.792Z,3.30
2022-08-02T12:17:28.690Z,2.88
2022-08-02T12:19:19.528Z,4.90
2022-08-02T12:20:51.429Z,1.73
2022-08-02T12:22:27.817Z,2.67
2022-08-02T12:24:01.322Z,1.98
2022-08-02T12:25:35.226Z,3.55
2022-08-02T12:27:07.712Z,5.28
2022-08-02T12:28:40.515Z,3.67
2022-08-02T12:30:14.424Z,1.38
2022-08-02T12:31:56.502Z,2.17
2022-08-02T12:33:45.574Z,1.90
2022-08-02T12:35:26.580Z,2.33
2022-08-02T12:37:10.457Z,2.15
2022-08-02T12:39:03.028Z,3.97
2022-08-02T12:40:35.116Z,2.65
2022-08-02T12:42:10.144Z,2.53
2022-08-02T12:43:43.571Z,3.25
2022-08-02T12:45:15.602Z,2.47
2022-08-02T12:46:58.826Z,2.53
2022-08-02T12:48:38.273Z,4.10
2022-08-02T12:50:11.850Z,2.67
2022-08-02T12:51:56.327Z,3.85
2022-08-02T12:53:33.132Z,1.90
2022-08-02T12:55:19.434Z,2.88
2022-08-02T12:56:51.932Z,2.25
2022-08-02T12:58:23.832Z,3.65
2022-08-02T12:59:55.664Z,3.55
2022-08-02T13:01:28.439Z,2.13
2022-08-02T13:03:00.605Z,0.90
2022-08-02T13:04:33.064Z,1.98
2022-08-02T13:07:58.059Z,5.53
2022-08-02T13:09:36.397Z,4.55
2022-08-02T13:11:08.238Z,1.10
2022-08-02T13:12:40.332Z,1.48
2022-08-02T13:14:13.355Z,3.80
2022-08-02T13:15:50.281Z,1.30
2022-08-02T13:17:22.901Z,2.67
2022-08-02T13:18:57.722Z,1.98
2022-08-02T13:20:30.026Z,2.90
2022-08-02T13:22:03.749Z,3.13
2022-08-02T13:23:54.628Z,1.98
2022-08-02T13:25:27.230Z,2.10
2022-08-02T13:27:05.142Z,3.65
2022-08-02T13:28:42.855Z,3.75
2022-08-02T13:30:14.821Z,2.72
2022-08-02T13:31:46.675Z,1.35
2022-08-02T13:33:18.712Z,2.00
2022-08-02T13:34:51.388Z,2.33
2022-08-02T13:36:24.346Z,4.43
2022-08-02T13:37:56.885Z,1.48
2022-08-02T13:39:28.782Z,1.17
2022-08-02T13:43:02.914Z,1.38
2022-08-02T13:44:35.435Z,7.50
2022-08-02T13:46:07.875Z,2.92
2022-08-02T13:48:04.270Z,2.05
2022-08-02T13:51:23.583Z,1.20
2022-08-02T13:52:58.281Z,1.67
2022-08-02T13:54:30.240Z,1.67
2022-08-02T13:56:03.047Z,2.83
2022-08-02T13:57:34.948Z,1.80
2022-08-02T13:59:21.980Z,4.75
2022-08-02T14:00:58.808Z,2.67
2022-08-02T14:02:30.721Z,3.15
2022-08-02T14:04:07.742Z,3.13
2022-08-02T14:05:47.411Z,4.03
2022-08-02T14:07:20.638Z,1.67
2022-08-02T14:08:52.870Z,1.95
2022-08-02T14:10:26.502Z,1.83
2022-08-02T14:12:03.815Z,2.38
2022-08-02T14:13:36.204Z,4.22
2022-08-02T14:15:09.581Z,1.77
2022-08-02T14:16:41.585Z,1.00
2022-08-02T14:18:14.963Z,2.30
2022-08-02T14:19:47.112Z,1.73
2022-08-02T14:21:18.987Z,4.45
2022-08-02T14:22:50.817Z,1.17
2022-08-02T14:24:23.873Z,2.65
2022-08-02T14:25:55.919Z,1.83
2022-08-02T14:27:27.826Z,1.70
2022-08-02T14:28:59.716Z,1.67
2022-08-02T14:30:31.669Z,1.80
2022-08-02T14:32:03.840Z,1.70
2022-08-02T14:33:35.727Z,3.72
2022-08-02T14:35:07.857Z,4.53
2022-08-02T14:36:39.913Z,2.35
2022-08-02T14:38:12.098Z,3.65
2022-08-02T14:39:59.563Z,1.80
2022-08-02T14:41:58.207Z,2.50
2022-08-02T14:43:44.539Z,3.10
2022-08-02T14:45:18.507Z,1.90
2022-08-02T14:46:51.859Z,6.57
2022-08-02T14:48:28.664Z,4.65
2022-08-02T14:50:00.640Z,2.92
2022-08-02T14:51:32.608Z,4.13
2022-08-02T14:53:04.519Z,1.52
2022-08-02T14:54:36.356Z,1.67
2022-08-02T14:56:08.256Z,1.67
2022-08-02T14:57:40.266Z,3.47
2022-08-02T14:59:12.124Z,2.38
2022-08-02T15:00:44.086Z,1.27
2022-08-02T15:02:16.439Z,0.85
2022-08-02T15:03:48.630Z,2.70
2022-08-02T15:05:20.571Z,3.50
2022-08-02T15:06:52.708Z,1.38
2022-08-02T15:08:25.437Z,4.05
2022-08-02T15:09:57.424Z,1.67
2022-08-02T15:11:29.363Z,2.97
2022-08-02T15:13:01.163Z,2.80
2022-08-02T15:14:33.069Z,2.55
2022-08-02T15:16:05.441Z,2.60
2022-08-02T15:19:09.080Z,2.67
2022-08-02T15:20:46.234Z,1.70
2022-08-02T15:22:29.359Z,1.65
2022-08-02T15:24:03.025Z,1.50
2022-08-02T15:25:39.687Z,0.80
2022-08-02T15:27:14.801Z,1.45
2022-08-02T15:28:48.373Z,1.42
2022-08-02T15:30:27.549Z,0.90
2022-08-02T15:31:59.382Z,1.15
2022-08-02T15:33:31.378Z,1.42
2022-08-02T15:35:03.298Z,1.83
2022-08-02T15:36:35.222Z,1.65
2022-08-02T15:38:07.139Z,2.78
2022-08-02T15:39:39.131Z,4.40
2022-08-02T15:41:10.975Z,1.95
2022-08-02T15:42:44.532Z,2.22
2022-08-02T15:45:48.777Z,0.77
2022-08-02T15:47:20.702Z,1.73
2022-08-02T15:48:52.611Z,2.05
2022-08-02T15:50:27.738Z,1.58
2022-08-02T15:52:02.586Z,3.42
2022-08-02T15:53:37.474Z,2.55
2022-08-02T15:55:12.230Z,2.28
2022-08-02T15:56:44.219Z,2.97
2022-08-02T15:58:17.119Z,2.33
2022-08-02T15:59:55.906Z,1.77
2022-08-02T16:01:37.045Z,1.77
2022-08-02T16:03:09.676Z,1.90
2022-08-02T16:04:44.221Z,2.83
2022-08-02T16:06:16.296Z,3.17
2022-08-02T16:07:48.249Z,3.60
2022-08-02T16:09:20.099Z,0.88
2022-08-02T16:10:51.970Z,1.58
2022-08-02T16:12:32.292Z,4.30
2022-08-02T16:14:04.863Z,3.33
2022-08-02T16:15:36.714Z,1.27
2022-08-02T16:17:08.614Z,2.13
2022-08-02T16:18:40.559Z,2.35
2022-08-02T16:20:12.471Z,2.00
2022-08-02T16:21:44.390Z,1.55
2022-08-02T16:23:16.375Z,1.23
2022-08-02T16:24:48.317Z,2.95
2022-08-02T16:26:20.544Z,1.58
2022-08-02T16:28:06.330Z,1.80
2022-08-02T16:29:39.574Z,1.80
2022-08-02T16:31:11.833Z,1.73
2022-08-02T16:32:43.729Z,3.53
2022-08-02T16:34:16.908Z,2.78
2022-08-02T16:35:48.773Z,2.50
2022-08-02T16:37:20.655Z,1.33
2022-08-02T16:38:56.110Z,2.00
2022-08-02T16:40:27.956Z,2.15
2022-08-02T16:42:00.097Z,2.15
2022-08-02T16:43:33.593Z,3.67
2022-08-02T16:45:06.136Z,3.80
2022-08-02T16:46:38.686Z,1.55
2022-08-02T16:48:10.550Z,2.92
2022-08-02T16:50:05.519Z,2.70
2022-08-02T16:51:34.507Z,3.97
2022-08-02T16:53:07.942Z,1.45
2022-08-02T16:54:39.910Z,4.20
2022-08-02T16:56:12.290Z,3.90
2022-08-02T16:57:50.048Z,3.13
2022-08-02T17:01:14.338Z,4.65
2022-08-02T17:02:46.877Z,2.65
2022-08-02T17:04:19.104Z,2.92
2022-08-02T17:05:56.476Z,1.98
2022-08-02T17:08:10.490Z,4.55
2022-08-02T17:10:03.922Z,2.80
2022-08-02T17:11:13.133Z,3.75
2022-08-02T17:12:51.385Z,3.20
2022-08-02T17:14:26.803Z,2.40
2022-08-02T17:16:16.133Z,3.08
2022-08-02T17:17:51.564Z,3.55
2022-08-02T17:19:25.107Z,2.53
2022-08-02T17:20:57.233Z,2.03
2022-08-02T17:22:29.272Z,1.83
2022-08-02T17:24:08.083Z,2.63
2022-08-02T17:25:42.411Z,2.67
2022-08-02T17:27:15.894Z,2.22
2022-08-02T17:29:15.986Z,3.17
2022-08-02T17:30:39.941Z,11.00
2022-08-02T17:32:11.928Z,2.92
2022-08-02T17:33:43.833Z,2.55
2022-08-02T17:35:16.641Z,1.25
2022-08-02T17:36:49.823Z,1.52
2022-08-02T17:38:26.065Z,3.72
2022-08-02T17:39:58.700Z,4.15
2022-08-02T17:41:37.677Z,3.85
2022-08-02T17:45:16.753Z,1.35
2022-08-02T17:46:57.354Z,2.10
2022-08-02T17:48:50.278Z,4.95
2022-08-02T17:50:27.205Z,4.57
2022-08-02T17:52:15.356Z,2.15
2022-08-02T17:53:50.993Z,2.35
2022-08-02T17:55:23.052Z,4.45
2022-08-02T17:56:55.775Z,4.30
2022-08-02T17:58:32.948Z,3.28
2022-08-02T18:00:08.431Z,2.55
2022-08-02T18:01:42.167Z,2.47
2022-08-02T18:03:25.647Z,2.42
2022-08-02T18:05:00.208Z,2.58
2022-08-02T18:06:32.067Z,3.25
2022-08-02T18:08:05.246Z,2.05
2022-08-02T18:09:43.307Z,3.20
2022-08-02T18:11:15.737Z,4.57
2022-08-02T18:12:48.847Z,4.45
2022-08-02T18:14:21.033Z,1.55
2022-08-02T18:15:57.352Z,4.13
2022-08-02T18:17:31.394Z,1.50
2022-08-02T18:19:04.318Z,3.90
2022-08-02T18:20:37.048Z,3.42
2022-08-02T18:22:10.140Z,3.25
2022-08-02T18:23:44.149Z,1.88
2022-08-02T18:25:37.847Z,2.00
2022-08-02T18:27:13.333Z,3.42
2022-08-02T18:28:45.589Z,4.45
2022-08-02T18:30:21.676Z,3.72
2022-08-02T18:32:00.100Z,2.15
2022-08-02T18:33:58.268Z,3.47
2022-08-02T18:35:24.107Z,3.80
2022-08-02T18:36:56.057Z,3.05
2022-08-02T18:38:30.359Z,4.65
2022-08-02T18:40:02.294Z,5.10
2022-08-02T18:41:34.207Z,2.20
2022-08-02T18:43:07.769Z,4.63
2022-08-02T18:44:40.107Z,1.70
2022-08-02T18:46:15.709Z,4.40
2022-08-02T18:47:50.778Z,3.00
2022-08-02T18:49:24.106Z,1.65
2022-08-02T18:51:01.952Z,2.78
2022-08-02T18:52:33.995Z,3.38
2022-08-02T18:54:06.056Z,1.70
2022-08-02T18:55:59.942Z,2.33
2022-08-02T18:58:17.002Z,2.03
2022-08-02T18:59:21.761Z,1.58
2022-08-02T19:00:55.763Z,3.42
2022-08-02T19:02:27.993Z,3.90
2022-08-02T19:04:00.935Z,3.85
2022-08-02T19:05:52.113Z,2.40
2022-08-02T19:07:50.865Z,4.32
2022-08-02T19:09:19.949Z,2.53
2022-08-02T19:10:55.236Z,3.58
2022-08-02T19:12:29.125Z,2.17
2022-08-02T19:14:01.072Z,8.13
2022-08-02T19:15:33.150Z,4.15
2022-08-02T19:17:15.713Z,2.40
2022-08-02T19:18:57.281Z,1.23
2022-08-02T19:20:31.501Z,3.92
2022-08-02T19:22:17.946Z,3.78
2022-08-02T19:23:55.963Z,2.85
2022-08-02T19:25:28.198Z,2.45
2022-08-02T19:28:46.124Z,4.53
2022-08-02T19:30:21.257Z,3.80
2022-08-02T19:32:00.123Z,4.32
2022-08-02T19:34:05.870Z,2.17
2022-08-02T19:35:30.554Z,3.05
2022-08-02T19:37:03.491Z,3.45
2022-08-02T19:38:43.461Z,5.50
2022-08-02T19:40:20.776Z,3.42
2022-08-02T19:41:55.570Z,2.28
2022-08-02T19:44:27.373Z,2.25
2022-08-02T19:45:20.058Z,4.43
2022-08-02T19:47:12.250Z,7.75
2022-08-02T19:48:46.171Z,4.50
2022-08-02T19:50:19.854Z,3.13
2022-08-02T19:51:57.865Z,6.25
2022-08-02T19:53:47.135Z,6.03
2022-08-02T19:55:58.301Z,7.68
2022-08-02T19:57:16.999Z,6.35
2022-08-02T19:58:52.114Z,9.02
2022-08-02T20:00:24.158Z,7.10
2022-08-02T20:01:56.393Z,5.47
2022-08-02T20:03:50.833Z,8.68
2022-08-02T20:05:26.634Z,17.55
2022-08-02T20:07:00.207Z,13.57
2022-08-02T20:08:35.534Z,10.77
2022-08-02T20:10:11.235Z,9.45
2022-08-02T20:11:44.296Z,9.35
2022-08-02T20:13:16.133Z,6.93
2022-08-02T20:14:51.046Z,5.10
2022-08-02T20:16:27.823Z,4.70
2022-08-02T20:18:00.305Z,3.35
2022-08-02T20:19:32.663Z,5.22
2022-08-02T20:21:07.126Z,7.15
2022-08-02T20:23:32.115Z,2.88
2022-08-02T20:25:07.948Z,5.05
2022-08-02T20:26:47.905Z,5.15
2022-08-02T20:28:22.151Z,3.42
2022-08-02T20:29:57.093Z,4.40
2022-08-02T20:31:28.949Z,4.57
2022-08-02T20:33:21.696Z,5.13
2022-08-02T20:34:53.595Z,5.35
2022-08-02T20:36:26.889Z,3.92
2022-08-02T20:38:04.826Z,5.90
2022-08-02T20:39:42.907Z,4.15
2022-08-02T20:41:21.575Z,5.47
2022-08-02T20:42:56.686Z,6.82
2022-08-02T20:44:30.892Z,6.38
2022-08-02T20:46:03.516Z,5.18
2022-08-02T20:47:39.647Z,4.25
2022-08-02T20:49:23.113Z,6.22
2022-08-02T20:50:57.834Z,5.13
2022-08-02T20:52:30.852Z,4.28
2022-08-02T20:54:04.281Z,4.80
2022-08-02T20:55:44.406Z,4.97
2022-08-02T20:57:16.251Z,4.47
2022-08-02T20:58:51.982Z,6.72
2022-08-02T21:00:42.201Z,5.60
2022-08-02T21:02:16.325Z,7.07
2022-08-02T21:03:58.487Z,6.40
2022-08-02T21:05:54.586Z,6.53
2022-08-02T21:07:22.960Z,3.95
2022-08-02T21:08:56.870Z,3.47
2022-08-02T21:10:32.189Z,5.10
2022-08-02T21:12:04.277Z,4.40
2022-08-02T21:13:47.135Z,3.65
2022-08-02T21:15:30.097Z,4.88
2022-08-02T21:17:08.885Z,4.32
2022-08-02T21:18:41.321Z,3.03
2022-08-02T21:20:13.283Z,6.50
2022-08-02T21:21:48.728Z,4.85
2022-08-02T21:23:21.523Z,3.72
2022-08-02T21:24:53.442Z,6.18
2022-08-02T21:26:30.629Z,4.55
2022-08-02T21:28:19.688Z,4.03
2022-08-02T21:29:55.143Z,7.03
2022-08-02T21:31:30.088Z,4.30
2022-08-02T21:33:04.120Z,4.53
2022-08-02T21:34:49.727Z,3.92
2022-08-02T21:36:21.506Z,3.22
2022-08-02T21:38:03.423Z,3.35
2022-08-02T21:39:36.692Z,3.10
2022-08-02T21:41:11.327Z,3.78
2022-08-02T21:42:44.122Z,5.30
2022-08-02T21:44:20.173Z,4.35
2022-08-02T21:45:53.862Z,7.20
2022-08-02T21:47:27.635Z,7.55
2022-08-02T21:48:59.401Z,6.18
2022-08-02T21:50:31.309Z,4.68
2022-08-02T21:52:03.737Z,3.30
2022-08-02T21:55:57.882Z,6.20